Time;durP1;ratioP1;P1;durP2;ratioP2;P2;SDS_P1;SDS_P2;PMS_P1;PMS_P2;Temp;Humidity;BMP_temperature;BMP_pressure;BME280_temperature;BME280_humidity;BME280_pressure;Samples;Min_cycle;Max_cycle;Signal;HPM_P1;HPM_P2
2022/11/19 00:00:09;;;;;;;5.20;4.18;;;;;;;0.30;100.00;101358.47;5029829;28;20041;-80
2022/11/19 00:02:39;;;;;;;5.77;4.10;;;;;;;0.26;100.00;101360.00;4982661;28;1169704;-81
2022/11/19 00:05:07;;;;;;;4.82;4.13;;;;;;;0.26;100.00;101366.91;4996038;28;20377;-81
2022/11/19 00:07:37;;;;;;;5.15;4.35;;;;;;;0.25;100.00;101368.63;5005322;28;20081;-79
2022/11/19 00:10:08;;;;;;;4.90;3.95;;;;;;;0.18;100.00;101369.97;5013972;28;20053;-80
2022/11/19 00:12:54;;;;;;;4.55;4.10;;;;;;;0.16;100.00;101381.97;4996721;28;20033;-80
2022/11/19 00:15:23;;;;;;;5.47;4.20;;;;;;;0.16;100.00;101374.19;5004989;28;20030;-80
2022/11/19 00:17:51;;;;;;;5.20;3.75;;;;;;;0.14;100.00;101380.09;4989549;28;20045;-80
2022/11/19 00:20:20;;;;;;;3.70;3.40;;;;;;;0.09;100.00;101384.16;5017950;28;20557;-80
2022/11/19 00:22:52;;;;;;;4.22;3.55;;;;;;;0.07;100.00;101376.28;5008817;28;20045;-80
2022/11/19 00:25:21;;;;;;;10.00;4.63;;;;;;;0.07;100.00;101375.41;5003767;28;20403;-80
2022/11/19 00:27:51;;;;;;;4.68;4.13;;;;;;;0.06;100.00;101378.78;5018677;28;20045;-81
2022/11/19 00:30:19;;;;;;;5.15;4.35;;;;;;;0.06;100.00;101384.88;4979128;28;20033;-80
2022/11/19 00:33:08;;;;;;;6.32;4.07;;;;;;;0.06;100.00;101383.97;5018797;28;20056;-80
2022/11/19 00:35:36;;;;;;;6.35;4.40;;;;;;;0.03;100.00;101369.16;5004317;28;20056;-79
2022/11/19 00:38:05;;;;;;;4.25;3.85;;;;;;;0.01;100.00;101382.84;5021161;28;20523;-79
2022/11/19 00:40:34;;;;;;;7.03;4.80;;;;;;;0.01;100.00;101378.53;5008287;28;20054;-79
2022/11/19 00:45:49;;;;;;;5.85;4.45;;;;;;;0.04;100.00;101375.22;5000840;28;20506;-80
2022/11/19 00:48:18;;;;;;;5.70;4.45;;;;;;;0.04;100.00;101388.19;5029927;28;20406;-80
2022/11/19 00:50:47;;;;;;;6.00;4.57;;;;;;;0.04;100.00;101396.88;5021653;28;20053;-80
2022/11/19 00:53:15;;;;;;;4.95;4.47;;;;;;;0.03;100.00;101381.22;5015056;28;20045;-79
2022/11/19 00:55:43;;;;;;;5.43;4.47;;;;;;;0.04;100.00;101391.69;5015124;28;20042;-79
2022/11/19 00:58:12;;;;;;;6.60;3.53;;;;;;;-0.02;100.00;101402.59;5028149;28;20053;-81
2022/11/19 01:00:41;;;;;;;4.28;3.88;;;;;;;-0.03;100.00;101400.81;5030291;28;20052;-81
2022/11/19 01:03:10;;;;;;;4.93;4.43;;;;;;;-0.03;100.00;101395.63;5007362;28;20050;-80
2022/11/19 01:05:39;;;;;;;4.38;3.97;;;;;;;-0.04;100.00;101390.34;5023141;28;20386;-80
2022/11/19 01:08:07;;;;;;;6.15;4.72;;;;;;;-0.03;100.00;101399.94;5002910;28;20127;-80
2022/11/19 01:10:36;;;;;;;7.82;4.97;;;;;;;-0.02;100.00;101402.59;5013635;28;20029;-80
2022/11/19 01:15:51;;;;;;;5.10;4.05;;;;;;;-0.11;100.00;101411.56;4992895;28;20052;-80
2022/11/19 01:18:20;;;;;;;4.53;4.03;;;;;;;-0.16;100.00;101424.25;4999391;28;20056;-80
2022/11/19 01:20:48;;;;;;;7.85;4.07;;;;;;;-0.17;100.00;101413.81;5015415;28;20058;-80
2022/11/19 01:23:17;;;;;;;4.55;4.03;;;;;;;-0.21;100.00;101420.50;5007353;28;20068;-80
2022/11/19 01:25:45;;;;;;;9.23;4.68;;;;;;;-0.27;100.00;101415.00;5005380;28;20037;-80
2022/11/19 01:28:13;;;;;;;9.35;5.15;;;;;;;-0.32;100.00;101434.56;5030593;28;20048;-80
2022/11/19 01:30:43;;;;;;;5.20;4.13;;;;;;;-0.34;100.00;101426.72;5000213;28;20038;-80
2022/11/19 01:33:12;;;;;;;6.10;4.90;;;;;;;-0.35;100.00;101429.22;5000397;28;20533;-80
2022/11/19 01:35:42;;;;;;;7.63;5.78;;;;;;;-0.37;100.00;101438.59;5013488;28;20751;-80
2022/11/19 01:38:11;;;;;;;6.78;5.10;;;;;;;-0.40;100.00;101437.63;5025178;28;20060;-80
2022/11/19 01:40:42;;;;;;;5.97;4.68;;;;;;;-0.44;100.00;101443.41;5037101;28;20051;-79
2022/11/19 01:43:11;;;;;;;5.28;4.65;;;;;;;-0.47;100.00;101450.13;5026447;28;20073;-80
2022/11/19 01:45:48;;;;;;;6.47;5.33;;;;;;;-0.49;100.00;101444.88;5008998;28;20042;-81
2022/11/19 01:48:26;;;;;;;5.68;4.75;;;;;;;-0.52;100.00;101460.22;5007048;28;20038;-80
2022/11/19 01:51:07;;;;;;;4.70;4.22;;;;;;;-0.52;100.00;101459.31;5004601;28;20038;-80
2022/11/19 01:53:37;;;;;;;5.72;4.75;;;;;;;-0.52;100.00;101470.56;5005304;28;20060;-80
2022/11/19 01:56:07;;;;;;;7.13;4.22;;;;;;;-0.52;100.00;101462.78;5029550;28;20048;-80
2022/11/19 01:58:37;;;;;;;;;;;;;;;-0.56;100.00;101468.59;5015916;28;20399;-79
2022/11/19 02:01:08;;;;;;;5.90;4.33;;;;;;;-0.58;100.00;101466.75;5024859;28;19922;-80
2022/11/19 02:03:39;;;;;;;6.05;4.82;;;;;;;-0.58;100.00;101475.41;5015524;28;20546;-80
2022/11/19 02:06:08;;;;;;;8.02;4.50;;;;;;;-0.57;100.00;101474.56;4998587;28;20045;-80
2022/11/19 02:08:38;;;;;;;6.85;4.90;;;;;;;-0.56;100.00;101478.97;5021980;28;20056;-80
2022/11/19 02:11:15;;;;;;;6.28;5.40;;;;;;;-0.60;100.00;101477.00;5026688;28;20046;-80
2022/11/19 02:14:09;;;;;;;6.68;4.75;;;;;;;-0.61;100.00;101481.25;5012892;28;20037;-81
2022/11/19 02:17:02;;;;;;;6.13;5.25;;;;;;;-0.64;100.00;101486.28;5017496;28;20049;-80
2022/11/19 02:20:09;;;;;;;6.72;5.10;;;;;;;-0.68;100.00;101494.69;5017131;28;20058;-80
2022/11/19 02:22:50;;;;;;;4.70;4.20;;;;;;;-0.71;100.00;101486.72;5016177;28;20053;-80
2022/11/19 02:25:34;;;;;;;9.23;5.35;;;;;;;-0.72;100.00;101500.44;5023237;28;20037;-80
2022/11/19 02:28:21;;;;;;;5.25;4.75;;;;;;;-0.75;100.00;101510.63;5018626;28;20057;-80
2022/11/19 02:30:52;;;;;;;5.35;4.28;;;;;;;-0.80;100.00;101489.66;5024917;28;20050;-80
2022/11/19 02:33:52;;;;;;;4.78;3.85;;;;;;;-0.82;100.00;101491.25;5030744;28;20399;-80
2022/11/19 02:36:25;;;;;;;7.85;4.90;;;;;;;-0.81;100.00;101495.63;5004478;28;20046;-80
2022/11/19 02:39:09;;;;;;;7.13;5.00;;;;;;;-0.83;100.00;101499.84;5035708;28;20060;-80
2022/11/19 02:41:58;;;;;;;6.75;4.45;;;;;;;-0.83;100.00;101493.78;5018298;28;20045;-80
2022/11/19 02:44:59;;;;;;;5.95;4.60;;;;;;;-0.83;100.00;101499.84;5017407;28;20049;-81
2022/11/19 02:47:33;;;;;;;4.60;3.80;;;;;;;-0.84;100.00;101500.63;5027750;28;20041;-80
2022/11/19 02:50:08;;;;;;;6.38;4.72;;;;;;;-0.84;100.00;101512.69;5022448;28;20038;-80
2022/11/19 02:52:41;;;;;;;5.70;4.78;;;;;;;-0.85;100.00;101506.63;4995998;28;20534;-79
2022/11/19 02:55:16;;;;;;;6.20;4.50;;;;;;;-0.87;100.00;101509.88;5015395;28;20053;-80
2022/11/19 02:57:53;;;;;;;6.57;4.45;;;;;;;-0.88;100.00;101513.28;5021445;28;20053;-80
2022/11/19 03:06:12;;;;;;;4.88;3.80;;;;;;;-0.91;100.00;101516.56;5008617;28;20064;-80
2022/11/19 03:08:45;;;;;;;7.80;5.25;;;;;;;-0.89;100.00;101509.81;5021401;28;20356;-80
2022/11/19 03:11:30;;;;;;;6.55;4.72;;;;;;;-0.90;100.00;101502.84;5019473;28;20048;-80
2022/11/19 03:17:11;;;;;;;6.13;4.70;;;;;;;-0.93;100.00;101504.34;5025238;28;20056;-80
2022/11/19 03:20:07;;;;;;;5.53;4.45;;;;;;;-0.95;100.00;101512.03;5014536;28;20052;-80
2022/11/19 03:22:48;;;;;;;5.93;4.80;;;;;;;-0.95;100.00;101505.97;5006554;28;20038;-80
2022/11/19 03:25:26;;;;;;;7.30;5.15;;;;;;;-0.94;100.00;101510.34;5027968;28;20053;-80
2022/11/19 03:28:00;;;;;;;6.88;4.80;;;;;;;-0.95;100.00;101512.03;5017880;28;20064;-80
2022/11/19 03:30:30;;;;;;;7.30;4.75;;;;;;;-0.94;100.00;101520.69;5021569;28;20518;-80
2022/11/19 03:33:07;;;;;;;7.25;5.07;;;;;;;-0.93;100.00;101528.53;5014189;28;20057;-80
2022/11/19 03:35:44;;;;;;;5.20;4.47;;;;;;;-0.94;100.00;101523.28;5024528;28;20045;-80
2022/11/19 03:38:17;;;;;;;7.30;5.07;;;;;;;-0.96;100.00;101515.44;5007244;28;20050;-79
2022/11/19 03:40:48;;;;;;;7.10;4.53;;;;;;;-0.96;100.00;101528.38;5028928;28;20064;-80
2022/11/19 03:43:19;;;;;;;5.03;4.35;;;;;;;-0.99;100.00;101536.81;5012134;28;20053;-80
2022/11/19 03:45:51;;;;;;;8.15;5.32;;;;;;;-1.01;100.00;101532.34;5019622;28;20049;-80
2022/11/19 03:48:21;;;;;;;7.50;5.40;;;;;;;-1.01;100.00;101541.00;5031223;28;20494;-80
2022/11/19 03:50:55;;;;;;;;;;;;;;;-1.02;100.00;101548.66;5027254;28;20411;-80
2022/11/19 03:53:24;;;;;;;8.00;4.88;;;;;;;-1.03;100.00;101554.66;5004375;28;19921;-79
2022/11/19 03:55:58;;;;;;;4.75;4.25;;;;;;;-1.04;100.00;101539.91;5009371;28;20046;-80
2022/11/19 03:58:26;;;;;;;9.68;4.65;;;;;;;-1.05;100.00;101564.03;4999051;28;20415;-80
2022/11/19 04:00:55;;;;;;;5.35;4.70;;;;;;;-1.05;100.00;101564.91;5018997;28;20089;-79
2022/11/19 04:03:23;;;;;;;5.72;4.28;;;;;;;-1.07;100.00;101563.91;4992723;28;20380;-79
2022/11/19 04:05:51;;;;;;;5.65;4.50;;;;;;;-1.05;100.00;101569.19;5010910;28;20411;-80
2022/11/19 04:08:20;;;;;;;4.82;4.05;;;;;;;-1.08;100.00;101576.75;5006877;28;20042;-80
2022/11/19 04:10:48;;;;;;;4.93;4.28;;;;;;;-1.08;100.00;101584.50;5024832;28;20045;-80
2022/11/19 04:13:16;;;;;;;5.38;4.55;;;;;;;-1.07;100.00;101573.38;5000992;28;20030;-80
2022/11/19 04:15:44;;;;;;;4.45;4.05;;;;;;;-1.08;100.00;101574.16;4994999;28;20042;-80
2022/11/19 04:18:14;;;;;;;6.53;4.43;;;;;;;-1.11;100.00;101585.22;5012066;28;20045;-79
2022/11/19 04:20:45;;;;;;;6.15;4.75;;;;;;;-1.10;100.00;101579.22;5025683;28;20450;-80
2022/11/19 04:23:13;;;;;;;5.95;3.92;;;;;;;-1.12;100.00;101588.59;5027142;28;20507;-79
2022/11/19 04:25:46;;;;;;;6.15;4.40;;;;;;;-1.14;100.00;101578.97;4996513;28;20061;-79
2022/11/19 04:28:14;;;;;;;4.82;4.32;;;;;;;-1.13;100.00;101580.78;5015601;28;20044;-79
2022/11/19 04:30:43;;;;;;;5.30;4.30;;;;;;;-1.12;100.00;101596.34;5000077;28;20050;-80
2022/11/19 04:33:11;;;;;;;6.53;4.47;;;;;;;-1.11;100.00;101594.69;5003873;28;20038;-80
2022/11/19 04:35:45;;;;;;;6.20;4.47;;;;;;;-1.13;100.00;101601.47;5024197;28;20056;-80
2022/11/19 04:38:13;;;;;;;9.15;4.60;;;;;;;-1.13;100.00;101593.69;5012175;28;20041;-80
2022/11/19 04:40:41;;;;;;;5.57;4.60;;;;;;;-1.14;100.00;101595.38;4980532;28;20046;-79
2022/11/19 04:43:10;;;;;;;4.68;4.22;;;;;;;-1.13;100.00;101602.34;4993325;28;20034;-80
2022/11/19 04:45:38;;;;;;;5.57;4.45;;;;;;;-1.14;100.00;101602.25;5007932;28;20683;-80
2022/11/19 04:48:07;;;;;;;4.38;3.97;;;;;;;-1.13;100.00;101606.63;5024084;28;20041;-80
2022/11/19 04:50:35;;;;;;;4.30;3.90;;;;;;;-1.12;100.00;101611.88;4991400;28;20049;-80
2022/11/19 04:53:03;;;;;;;5.25;4.05;;;;;;;-1.13;100.00;101623.03;5022297;28;20049;-80
2022/11/19 04:55:32;;;;;;;4.28;3.85;;;;;;;-1.14;100.00;101610.00;5006194;28;20458;-79
2022/11/19 04:58:02;;;;;;;;;;;;;;;-1.13;100.00;101597.16;5000651;28;20049;-80
2022/11/19 05:00:34;;;;;;;2.53;2.25;;;;;;;-1.15;100.00;101613.38;4993866;28;19932;-80
2022/11/19 05:03:02;;;;;;;5.72;4.70;;;;;;;-1.13;100.00;101609.22;5003250;28;20072;-79
2022/11/19 05:05:32;;;;;;;4.90;4.30;;;;;;;-1.12;100.00;101605.81;5009342;28;20080;-79
2022/11/19 05:08:00;;;;;;;5.07;4.03;;;;;;;-1.12;100.00;101613.56;4984633;28;20538;-79
2022/11/19 05:10:29;;;;;;;5.15;4.25;;;;;;;-1.12;100.00;101609.28;4981937;28;20220;-79
2022/11/19 05:12:57;;;;;;;5.75;4.10;;;;;;;-1.12;100.00;101621.34;4978146;28;20061;-79
2022/11/19 05:15:26;;;;;;;6.30;4.35;;;;;;;-1.11;100.00;101610.22;5025872;28;20181;-79
2022/11/19 05:17:54;;;;;;;4.70;4.20;;;;;;;-1.12;100.00;101617.06;5003398;28;20514;-79
2022/11/19 05:20:23;;;;;;;4.95;3.95;;;;;;;-1.12;100.00;101609.28;4995795;28;20057;-81
2022/11/19 05:22:51;;;;;;;4.07;3.75;;;;;;;-1.10;100.00;101609.38;5009178;28;20045;-79
2022/11/19 05:25:20;;;;;;;6.63;4.47;;;;;;;-1.08;100.00;101607.78;5004569;28;20064;-80
2022/11/19 05:27:48;;;;;;;6.65;4.03;;;;;;;-1.09;100.00;101603.44;5023243;28;20050;-80
2022/11/19 05:30:16;;;;;;;6.75;4.70;;;;;;;-1.10;100.00;101605.09;5007518;28;20061;-80
2022/11/19 05:32:46;;;;;;;5.10;4.35;;;;;;;-1.10;100.00;101605.09;5019665;28;20050;-81
2022/11/19 05:35:14;;;;;;;5.25;4.25;;;;;;;-1.13;100.00;101620.44;5006797;28;20040;-80
2022/11/19 05:37:42;;;;;;;5.63;3.97;;;;;;;-1.14;100.00;101612.59;4995286;28;20141;-80
2022/11/19 05:40:12;;;;;;;5.10;4.28;;;;;;;-1.14;100.00;101620.34;5004742;28;20057;-80
2022/11/19 05:42:41;;;;;;;4.60;4.15;;;;;;;-1.14;100.00;101620.34;5010427;28;20061;-80
2022/11/19 05:45:10;;;;;;;4.72;4.00;;;;;;;-1.14;100.00;101630.69;5017570;28;20157;-79
2022/11/19 05:47:39;;;;;;;4.95;4.45;;;;;;;-1.13;100.00;101622.16;4986059;28;20530;-80
2022/11/19 05:50:14;;;;;;;4.88;4.22;;;;;;;-1.15;100.00;101629.81;5006401;28;20049;-79
2022/11/19 05:52:42;;;;;;;5.28;4.22;;;;;;;-1.14;100.00;101628.09;5003390;28;20046;-79
2022/11/19 05:55:11;;;;;;;4.97;4.15;;;;;;;-1.12;100.00;101636.84;5018707;28;20364;-79
2022/11/19 05:57:40;;;;;;;7.03;3.65;;;;;;;-1.11;100.00;101626.63;5003990;28;20042;-79
2022/11/19 06:00:10;;;;;;;4.60;3.65;;;;;;;-1.10;100.00;101630.09;5006376;28;20053;-79
2022/11/19 06:02:41;;;;;;;5.05;4.55;;;;;;;-1.08;100.00;101636.25;5028973;28;20064;-80
2022/11/19 06:05:10;;;;;;;4.57;3.92;;;;;;;-1.08;100.00;101638.84;4997794;28;20057;-79
2022/11/19 06:07:38;;;;;;;5.18;4.28;;;;;;;-1.06;100.00;101639.81;5018720;28;20052;-79
2022/11/19 06:10:07;;;;;;;5.70;4.38;;;;;;;-1.06;100.00;101642.41;5003510;28;20491;-79
2022/11/19 06:12:36;;;;;;;4.20;3.80;;;;;;;-1.06;100.00;101645.00;5015865;28;20057;-81
2022/11/19 06:15:11;;;;;;;4.82;3.30;;;;;;;-1.08;100.00;101641.41;5026702;28;20053;-79
2022/11/19 06:17:41;;;;;;;6.00;4.80;;;;;;;-1.05;100.00;101639.91;5009877;28;20037;-79
2022/11/19 06:20:10;;;;;;;6.20;4.57;;;;;;;-1.04;100.00;101638.22;5013766;28;20065;-81
2022/11/19 06:22:39;;;;;;;5.00;3.95;;;;;;;-1.05;100.00;101641.63;5011398;28;20038;-80
2022/11/19 06:25:07;;;;;;;4.93;4.40;;;;;;;-1.04;100.00;101654.66;5002340;28;20045;-79
2022/11/19 06:27:36;;;;;;;7.18;4.13;;;;;;;-1.04;100.00;101641.72;5031678;28;20111;-79
2022/11/19 06:30:06;;;;;;;5.90;4.60;;;;;;;-1.06;100.00;101656.25;5011497;28;20046;-80
2022/11/19 06:32:35;;;;;;;;;;;;;;;-1.05;100.00;101657.16;5029115;28;20479;-80
2022/11/19 06:35:04;;;;;;;6.30;4.68;;;;;;;-1.05;100.00;101654.56;5001314;28;19925;-81
2022/11/19 06:37:34;;;;;;;5.45;4.65;;;;;;;-1.05;100.00;101655.44;5040050;28;20045;-81
2022/11/19 06:40:04;;;;;;;7.53;4.55;;;;;;;-1.07;100.00;101650.97;5023135;28;20042;-81
2022/11/19 06:42:35;;;;;;;6.30;4.75;;;;;;;-1.06;100.00;101650.16;5005968;28;20057;-83
2022/11/19 06:45:10;;;;;;;5.43;4.00;;;;;;;-1.06;100.00;101655.34;4998118;28;20061;-83
2022/11/19 06:47:40;;;;;;;5.60;4.47;;;;;;;-1.07;100.00;101659.63;5030249;28;20045;-82
2022/11/19 06:50:09;;;;;;;4.65;4.07;;;;;;;-1.07;100.00;101666.50;5022421;28;20049;-82
2022/11/19 06:52:43;;;;;;;4.50;4.07;;;;;;;-1.08;100.00;101668.16;5015134;28;20060;-83
2022/11/19 06:55:13;;;;;;;5.05;4.55;;;;;;;-1.08;100.00;101675.94;5022799;28;20414;-84
2022/11/19 06:57:41;;;;;;;4.97;3.97;;;;;;;-1.06;100.00;101670.88;5011502;28;20390;-81
2022/11/19 07:00:12;;;;;;;5.13;4.40;;;;;;;-1.07;100.00;101682.03;4994121;28;20042;-82
2022/11/19 07:02:40;;;;;;;6.22;4.35;;;;;;;-1.07;100.00;101680.31;5009830;28;20050;-82
2022/11/19 07:05:09;;;;;;;5.70;4.88;;;;;;;-1.06;100.00;101681.22;5033966;28;20049;-81
2022/11/19 07:07:38;;;;;;;5.82;4.80;;;;;;;-1.08;100.00;101690.56;4976731;28;20049;-82
2022/11/19 07:10:07;;;;;;;5.28;4.43;;;;;;;-1.12;100.00;101686.00;5017273;28;20033;-82
2022/11/19 07:12:36;;;;;;;7.78;5.30;;;;;;;-1.16;100.00;101682.31;5028416;28;20053;-82
2022/11/19 07:15:05;;;;;;;5.20;4.72;;;;;;;-1.18;100.00;101694.25;4990181;28;20038;-83
2022/11/19 07:17:34;;;;;;;5.38;4.40;;;;;;;-1.21;100.00;101696.66;5008270;28;20058;-82
2022/11/19 07:20:04;;;;;;;5.57;4.72;;;;;;;-1.24;100.00;101689.59;4991153;28;20050;-82
2022/11/19 07:22:33;;;;;;;;;;;;;;;-1.25;100.00;101693.00;5016804;28;20041;-80
2022/11/19 07:25:02;;;;;;;4.80;4.18;;;;;;;-1.24;100.00;101693.88;5025582;28;19929;-82
2022/11/19 07:27:32;;;;;;;6.38;4.28;;;;;;;-1.25;100.00;101692.06;5023077;28;20061;-82
2022/11/19 07:30:03;;;;;;;6.13;4.25;;;;;;;-1.24;100.00;101692.19;4991192;28;20045;-82
2022/11/19 07:32:32;;;;;;;5.85;4.85;;;;;;;-1.22;100.00;101700.94;5011960;28;20055;-82
2022/11/19 07:35:01;;;;;;;5.40;4.68;;;;;;;-1.19;100.00;101703.72;5011138;28;20403;-81
2022/11/19 07:37:29;;;;;;;5.78;4.45;;;;;;;-1.16;100.00;101700.44;5003436;28;20411;-81
2022/11/19 07:39:58;;;;;;;4.93;4.18;;;;;;;-1.11;100.00;101708.50;5024985;28;20033;-82
2022/11/19 07:45:20;;;;;;;5.05;4.40;;;;;;;-1.04;100.00;101713.25;4986640;28;20394;-81
2022/11/19 07:47:48;;;;;;;4.75;3.70;;;;;;;-1.03;100.00;101713.34;5019287;28;20049;-81
2022/11/19 07:50:17;;;;;;;4.30;3.90;;;;;;;-0.99;100.00;101706.69;5026710;28;20042;-81
2022/11/19 07:52:45;;;;;;;6.15;3.75;;;;;;;-0.95;100.00;101705.19;5005509;28;20046;-82
2022/11/19 07:55:14;;;;;;;5.40;4.70;;;;;;;-0.90;100.00;101694.31;5010188;28;20045;-82
2022/11/19 07:57:43;;;;;;;5.22;4.20;;;;;;;-0.84;100.00;101693.81;5024832;28;20057;-82
2022/11/19 08:00:12;;;;;;;6.53;4.32;;;;;;;-0.80;100.00;101695.78;4997640;28;20403;-81
2022/11/19 08:02:40;;;;;;;5.65;4.20;;;;;;;-0.75;100.00;101702.16;4990398;28;20046;-84
2022/11/19 08:05:09;;;;;;;5.35;4.15;;;;;;;-0.71;100.00;101696.38;5015376;28;20014;-81
2022/11/19 08:07:41;;;;;;;4.95;4.07;;;;;;;-0.66;100.00;101694.97;4991670;28;20068;-82
2022/11/19 08:10:10;;;;;;;5.45;4.10;;;;;;;-0.63;100.00;101695.16;5026320;28;20045;-82
2022/11/19 08:12:38;;;;;;;4.97;4.03;;;;;;;-0.57;100.00;101688.56;5010929;28;20052;-82
2022/11/19 08:15:07;;;;;;;5.72;4.40;;;;;;;-0.51;100.00;101696.69;5004211;28;20384;-81
2022/11/19 08:20:22;;;;;;;6.13;4.03;;;;;;;-0.44;100.00;101706.66;5008621;28;20041;-82
2022/11/19 08:22:51;;;;;;;5.38;3.80;;;;;;;-0.42;100.00;101703.38;5018708;28;20048;-82
2022/11/19 08:25:21;;;;;;;5.70;4.53;;;;;;;-0.38;100.00;101700.94;5008319;28;20407;-83
2022/11/19 08:27:49;;;;;;;5.40;4.35;;;;;;;-0.36;100.00;101709.69;4990536;28;20133;-82
2022/11/19 08:30:17;;;;;;;5.00;4.30;;;;;;;-0.32;100.00;101714.25;5022503;28;20507;-82
2022/11/19 08:32:46;;;;;;;7.25;5.00;;;;;;;-0.30;100.00;101710.06;4982916;28;20046;-82
2022/11/19 08:35:14;;;;;;;6.53;4.57;;;;;;;-0.29;100.00;101707.56;5019166;28;20060;-82
2022/11/19 08:37:42;;;;;;;8.38;5.25;;;;;;;-0.23;100.00;101720.00;5014372;28;20530;-82
2022/11/19 08:40:11;;;;;;;6.53;4.88;;;;;;;-0.18;100.00;101713.41;5023956;28;20395;-82
2022/11/19 08:43:01;;;;;;;7.07;5.68;;;;;;;-0.17;100.00;101715.22;5003355;28;20838;-82
2022/11/19 08:45:37;;;;;;;5.65;4.93;;;;;;;-0.12;100.00;101711.19;5025750;28;20050;-82
2022/11/19 08:48:09;;;;;;;7.95;5.25;;;;;;;-0.12;100.00;101711.19;5002650;28;20049;-82
2022/11/19 08:50:40;;;;;;;6.50;4.60;;;;;;;-0.07;100.00;101725.31;5027879;28;20073;-80
2022/11/19 08:53:08;;;;;;;5.72;4.88;;;;;;;-0.03;100.00;101713.44;5018988;28;20052;-83
2022/11/19 08:55:37;;;;;;;5.57;4.57;;;;;;;-0.03;100.00;101724.69;5008354;28;20041;-81
2022/11/19 08:58:06;;;;;;;5.72;4.97;;;;;;;0.01;100.00;101727.50;5023991;28;20045;-81
2022/11/19 09:00:36;;;;;;;7.47;4.38;;;;;;;0.01;100.00;101723.19;5017176;28;20042;-79
2022/11/19 09:03:04;;;;;;;5.25;4.75;;;;;;;0.02;100.00;101722.41;4977216;28;20418;-81
2022/11/19 09:05:34;;;;;;;5.97;4.80;;;;;;;0.03;100.00;101725.88;5026310;28;20046;-80
2022/11/19 09:08:06;;;;;;;6.30;4.82;;;;;;;0.08;100.00;101732.25;5014248;28;20053;-80
2022/11/19 09:10:36;;;;;;;5.32;4.35;;;;;;;0.11;100.00;101724.63;4997861;28;20141;-81
2022/11/19 09:13:05;;;;;;;4.97;4.47;;;;;;;0.13;100.00;101734.31;5020028;28;20045;-81
2022/11/19 09:15:34;;;;;;;5.10;4.30;;;;;;;0.18;100.00;101738.03;5016965;28;20585;-81
2022/11/19 09:18:02;;;;;;;6.60;4.95;;;;;;;0.24;100.00;101740.09;5003404;28;20037;-82
2022/11/19 09:20:31;;;;;;;5.65;4.93;;;;;;;0.31;100.00;101728.41;5026551;28;20616;-82
2022/11/19 09:23:02;;;;;;;9.00;4.65;;;;;;;0.32;100.00;101727.59;4995861;28;20052;-83
2022/11/19 09:25:31;;;;;;;5.95;5.35;;;;;;;0.36;100.00;101733.06;5009700;28;20554;-82
2022/11/19 09:28:00;;;;;;;5.97;4.93;;;;;;;0.42;100.00;101732.53;5019231;28;20053;-82
2022/11/19 09:30:29;;;;;;;6.75;4.63;;;;;;;0.46;100.00;101737.09;4991111;28;20049;-81
2022/11/19 09:32:58;;;;;;;5.53;4.63;;;;;;;0.47;100.00;101741.44;4973068;28;20057;-83
2022/11/19 09:35:27;;;;;;;5.90;4.77;;;;;;;0.50;100.00;101726.09;5014810;28;20041;-85
2022/11/19 09:37:55;;;;;;;7.53;5.28;;;;;;;0.56;100.00;101729.03;5018085;28;20034;-82
2022/11/19 09:40:24;;;;;;;6.80;5.10;;;;;;;0.64;100.00;101729.47;5023183;28;20053;-82
2022/11/19 09:43:29;;;;;;;6.90;5.00;;;;;;;0.72;100.00;101730.81;4986436;28;20439;-81
2022/11/19 09:46:28;;;;;;;7.60;5.57;;;;;;;0.77;100.00;101737.13;5030235;28;20045;-81
2022/11/19 09:49:01;;;;;;;6.35;4.78;;;;;;;0.85;100.00;101731.50;5016365;28;20088;-81
2022/11/19 09:51:38;;;;;;;6.75;5.43;;;;;;;0.89;100.00;101734.38;5025163;28;20068;-82
2022/11/19 09:54:14;;;;;;;5.20;4.40;;;;;;;0.94;100.00;101738.09;5033226;28;20413;-81
2022/11/19 09:56:45;;;;;;;6.40;4.85;;;;;;;0.99;100.00;101733.19;5022195;28;20064;-82
2022/11/19 09:59:43;;;;;;;5.43;4.68;;;;;;;1.04;100.00;101730.81;5009061;28;20046;-81
2022/11/19 10:02:20;;;;;;;4.55;4.15;;;;;;;1.07;100.00;101736.19;5008295;28;20484;-81
2022/11/19 10:04:50;;;;;;;6.03;4.32;;;;;;;1.06;100.00;101740.50;4998533;28;20468;-80
2022/11/19 10:07:22;;;;;;;4.88;4.32;;;;;;;1.08;100.00;101730.22;5001647;28;20049;-82
2022/11/19 10:09:59;;;;;;;4.32;3.47;;;;;;;1.15;100.00;101735.84;5027702;28;20462;-81
2022/11/19 10:12:55;;;;;;;4.43;4.00;;;;;;;1.23;100.00;101735.34;4996429;28;20402;-81
2022/11/19 10:15:33;;;;;;;6.53;4.10;;;;;;;1.29;100.00;101731.41;5027063;28;20060;-80
2022/11/19 10:18:38;;;;;;;4.72;4.22;;;;;;;1.32;100.00;101741.03;5028756;28;20041;-81
2022/11/19 10:21:22;;;;;;;4.85;3.72;;;;;;;1.35;100.00;101742.09;4998374;28;20050;-82
2022/11/19 10:23:58;;;;;;;5.05;3.97;;;;;;;1.38;100.00;101744.00;5001166;28;20065;-81
2022/11/19 10:26:39;;;;;;;6.03;3.90;;;;;;;1.41;100.00;101744.16;5032842;28;20049;-81
2022/11/19 10:29:18;;;;;;;5.28;4.60;;;;;;;1.43;100.00;101742.53;5022152;28;20041;-80
2022/11/19 10:31:49;;;;;;;4.57;4.03;;;;;;;1.42;100.00;101751.16;5019467;28;20049;-81
2022/11/19 10:34:26;;;;;;;6.13;4.07;;;;;;;1.47;100.00;101752.25;5032039;28;20050;-82
2022/11/19 10:37:02;;;;;;;4.53;3.83;;;;;;;1.45;100.00;101740.91;4998141;28;20060;-82
2022/11/19 10:39:38;;;;;;;4.45;3.92;;;;;;;1.51;100.00;101741.25;5025263;28;20054;-80
2022/11/19 10:42:24;;;;;;;5.05;4.30;;;;;;;1.55;100.00;101738.00;5025183;28;20061;-80
2022/11/19 10:45:05;;;;;;;5.15;4.07;;;;;;;1.60;100.00;101740.84;5003125;28;20079;-80
2022/11/19 10:48:24;;;;;;;5.15;3.80;;;;;;;1.62;100.00;101735.75;5015047;28;20057;-80
2022/11/19 10:50:55;;;;;;;4.95;4.15;;;;;;;1.63;100.00;101732.34;5012106;28;20056;-79
2022/11/19 10:53:36;;;;;;;4.88;4.38;;;;;;;1.68;100.00;101725.66;4997117;28;20041;-81
2022/11/19 10:56:11;;;;;;;6.03;4.60;;;;;;;1.72;100.00;101725.91;5035953;28;20498;-82
2022/11/19 10:58:56;;;;;;;5.60;4.68;;;;;;;1.79;100.00;101732.31;5048623;28;20045;-82
2022/11/19 11:01:32;;;;;;;5.93;4.78;;;;;;;1.88;100.00;101727.63;5022302;28;20495;-81
2022/11/19 11:04:12;;;;;;;5.93;4.47;;;;;;;1.93;100.00;101715.75;5019324;28;20044;-82
2022/11/19 11:06:54;;;;;;;5.50;4.25;;;;;;;1.97;100.00;101721.09;4999888;28;20060;-82
2022/11/19 11:09:42;;;;;;;6.40;5.20;;;;;;;2.00;100.00;101716.94;5024848;28;20029;-82
2022/11/19 11:15:16;;;;;;;10.52;5.22;;;;;;;2.07;100.00;101708.66;5026162;28;20518;-82
2022/11/19 11:17:46;;;;;;;7.97;5.22;;;;;;;2.11;100.00;101718.41;5019627;28;20527;-82
2022/11/19 11:20:14;;;;;;;5.47;4.70;;;;;;;2.12;100.00;101715.00;5035274;28;20045;-82
2022/11/19 11:22:45;;;;;;;5.93;4.45;;;;;;;2.16;100.00;101707.38;5011818;28;20529;-82
2022/11/19 11:25:23;;;;;;;5.47;4.50;;;;;;;2.20;100.00;101715.41;5028899;28;20376;-82
2022/11/19 11:28:13;;;;;;;5.13;4.55;;;;;;;2.22;100.00;101703.34;5021197;28;20042;-83
2022/11/19 11:30:59;;;;;;;4.38;3.97;;;;;;;2.20;100.00;101704.09;5004141;28;20038;-83
2022/11/19 11:33:52;;;;;;;6.97;4.32;;;;;;;2.12;100.00;101696.81;5016375;28;20038;-80
2022/11/19 11:36:25;;;;;;;6.15;4.50;;;;;;;2.04;100.00;101699.81;5010582;28;20513;-81
2022/11/19 11:38:57;;;;;;;8.43;4.35;;;;;;;1.99;100.00;101694.38;5003296;28;20053;-81
2022/11/19 11:41:41;;;;;;;5.20;4.68;;;;;;;1.98;100.00;101697.78;5021336;28;20053;-82
2022/11/19 11:44:37;;;;;;;4.35;3.95;;;;;;;2.01;100.00;101700.56;5023543;28;20050;-84
2022/11/19 11:47:15;;;;;;;4.63;3.40;;;;;;;2.02;100.00;101696.25;5021791;28;20060;-83
2022/11/19 11:49:56;;;;;;;4.32;3.83;;;;;;;2.03;100.00;101692.84;5012004;28;20777;-85
2022/11/19 11:52:36;;;;;;;4.18;3.63;;;;;;;2.01;100.00;101687.56;5021971;28;20048;-84
2022/11/19 11:55:26;;;;;;;5.97;3.73;;;;;;;2.00;100.00;101685.75;5021161;28;20046;-81
2022/11/19 11:58:01;;;;;;;3.85;3.35;;;;;;;2.01;100.00;101682.34;5020348;28;20304;-84
2022/11/19 12:00:39;;;;;;;4.88;3.40;;;;;;;2.06;100.00;101679.97;5031070;28;20584;-84
2022/11/19 12:03:19;;;;;;;4.40;4.00;;;;;;;2.09;100.00;101673.22;5023728;28;20385;-85
2022/11/19 12:06:06;;;;;;;5.60;3.95;;;;;;;2.12;100.00;101675.13;5019820;28;20404;-84
2022/11/19 12:08:40;;;;;;;3.53;3.22;;;;;;;2.17;100.00;101677.94;5037018;28;20041;-86
2022/11/19 12:11:56;;;;;;;5.07;4.00;;;;;;;2.20;100.00;101672.91;4992582;28;20442;-83